Aviation Digital Data Service (ADDS)

Output produced by METARs form (0840 UTC 24 March 2019)
found at http://www.aviationweather.gov/metar/data/
 
Forecast for: VYMD (MANDALAY , MM)
Text: TAF VYMD 240500Z 2406/2506 18007KT 7000 FEW020
Forecast period: 0600 UTC 24 March 2019 to 0600 UTC 25 March 2019
Forecast type: FROM: standard forecast or significant change
Winds: from the S (180 degrees) at 8 MPH (7 knots; 3.6 m/s)
Visibility: 4 miles (7 km)
Ceiling: at least 12,000 feet AGL
Clouds: few clouds at 2000 feet AGL
Weather: no significant weather forecast for this period
Text: TEMPO 2406/2412 34010G20KT 7000 FEW020
Forecast period: 0600 to 1200 UTC 24 March 2019
Forecast type: TEMPORARY: The following changes expected for less than half the time period
Winds: from the NNW (340 degrees) at 12 MPH (10 knots; 5.1 m/s)
gusting to 23 MPH (20 knots; 10.3 m/s)
Visibility: 4 miles (7 km)
Ceiling: at least 12,000 feet AGL
Clouds: few clouds at 2000 feet AGL
Weather: no significant weather forecast for this period